sensor_id;sensor_type;location;lat;lon;timestamp;pressure;altitude;pressure_sealevel;temperature;humidity
48527;BME280;34317;51.660;5.824;2023-02-01T00:01:30;101955.97;;;8.15;58.57
48527;BME280;34317;51.660;5.824;2023-02-01T00:03:57;101947.22;;;8.13;58.57
48527;BME280;34317;51.660;5.824;2023-02-01T00:06:24;101956.88;;;8.14;58.55
48527;BME280;34317;51.660;5.824;2023-02-01T00:08:53;101961.25;;;8.15;58.98
48527;BME280;34317;51.660;5.824;2023-02-01T00:11:22;101959.47;;;8.15;58.57
48527;BME280;34317;51.660;5.824;2023-02-01T00:13:50;101949.81;;;8.16;58.74
48527;BME280;34317;51.660;5.824;2023-02-01T00:18:49;101933.91;;;8.19;58.77
48527;BME280;34317;51.660;5.824;2023-02-01T00:21:19;101916.28;;;8.21;59.09
48527;BME280;34317;51.660;5.824;2023-02-01T00:23:46;101908.31;;;8.24;59.11
48527;BME280;34317;51.660;5.824;2023-02-01T00:26:16;101900.34;;;8.27;59.15
48527;BME280;34317;51.660;5.824;2023-02-01T00:28:44;101903.81;;;8.31;59.08
48527;BME280;34317;51.660;5.824;2023-02-01T00:31:11;101908.97;;;8.35;59.29
48527;BME280;34317;51.660;5.824;2023-02-01T00:33:39;101912.47;;;8.37;58.93
48527;BME280;34317;51.660;5.824;2023-02-01T00:36:07;101921.22;;;8.43;59.11
48527;BME280;34317;51.660;5.824;2023-02-01T00:38:37;101921.16;;;8.46;59.01
48527;BME280;34317;51.660;5.824;2023-02-01T00:41:12;101925.53;;;8.47;58.90
48527;BME280;34317;51.660;5.824;2023-02-01T00:43:41;101927.22;;;8.49;58.79
48527;BME280;34317;51.660;5.824;2023-02-01T00:46:09;101929.84;;;8.51;58.97
48527;BME280;34317;51.660;5.824;2023-02-01T00:48:37;101923.66;;;8.53;59.09
48527;BME280;34317;51.660;5.824;2023-02-01T00:51:06;101921.84;;;8.55;58.90
48527;BME280;34317;51.660;5.824;2023-02-01T00:53:34;101909.50;;;8.56;58.93
48527;BME280;34317;51.660;5.824;2023-02-01T00:56:01;101912.13;;;8.57;58.94
48527;BME280;34317;51.660;5.824;2023-02-01T00:58:29;101914.75;;;8.59;58.94
48527;BME280;34317;51.660;5.824;2023-02-01T01:01:08;101913.81;;;8.60;58.65
48527;BME280;34317;51.660;5.824;2023-02-01T01:03:46;101915.59;;;8.61;58.87
48527;BME280;34317;51.660;5.824;2023-02-01T01:06:16;101919.06;;;8.63;58.84
48527;BME280;34317;51.660;5.824;2023-02-01T01:08:43;101917.25;;;8.65;58.38
48527;BME280;34317;51.660;5.824;2023-02-01T01:11:14;101909.28;;;8.68;58.59
48527;BME280;34317;51.660;5.824;2023-02-01T01:13:42;101908.38;;;8.69;58.62
48527;BME280;34317;51.660;5.824;2023-02-01T01:16:10;101910.97;;;8.71;58.50
48527;BME280;34317;51.660;5.824;2023-02-01T01:18:38;101917.97;;;8.73;58.53
48527;BME280;34317;51.660;5.824;2023-02-01T01:21:06;101920.56;;;8.75;58.20
48527;BME280;34317;51.660;5.824;2023-02-01T01:23:35;101898.56;;;8.76;58.29
48527;BME280;34317;51.660;5.824;2023-02-01T01:26:07;101899.41;;;8.76;58.31
48527;BME280;34317;51.660;5.824;2023-02-01T01:28:34;101897.63;;;8.79;58.31
48527;BME280;34317;51.660;5.824;2023-02-01T01:31:02;101890.56;;;8.77;58.03
48527;BME280;34317;51.660;5.824;2023-02-01T01:33:30;101902.91;;;8.79;58.13
48527;BME280;34317;51.660;5.824;2023-02-01T01:35:57;101898.47;;;8.79;57.63
48527;BME280;34317;51.660;5.824;2023-02-01T01:38:24;101904.63;;;8.80;57.98
48527;BME280;34317;51.660;5.824;2023-02-01T01:40:51;101903.75;;;8.79;58.04
48527;BME280;34317;51.660;5.824;2023-02-01T01:43:20;101904.63;;;8.80;57.82
48527;BME280;34317;51.660;5.824;2023-02-01T01:45:51;101899.34;;;8.80;57.73
48527;BME280;34317;51.660;5.824;2023-02-01T01:48:28;101902.91;;;8.79;57.60
48527;BME280;34317;51.660;5.824;2023-02-01T01:51:01;101908.19;;;8.79;57.56
48527;BME280;34317;51.660;5.824;2023-02-01T01:53:34;101902.91;;;8.79;57.58
48527;BME280;34317;51.660;5.824;2023-02-01T01:56:02;101902.91;;;8.79;57.59
48527;BME280;34317;51.660;5.824;2023-02-01T01:58:32;101895.84;;;8.77;57.53
48527;BME280;34317;51.660;5.824;2023-02-01T02:01:00;101903.75;;;8.79;57.48
48527;BME280;34317;51.660;5.824;2023-02-01T02:03:33;101908.19;;;8.79;57.69
48527;BME280;34317;51.660;5.824;2023-02-01T02:06:03;101904.63;;;8.80;57.37
48527;BME280;34317;51.660;5.824;2023-02-01T02:08:34;101908.19;;;8.79;57.32
48527;BME280;34317;51.660;5.824;2023-02-01T02:11:01;101898.50;;;8.77;57.16
48527;BME280;34317;51.660;5.824;2023-02-01T02:13:35;101904.69;;;8.76;57.32
48527;BME280;34317;51.660;5.824;2023-02-01T02:16:22;101898.56;;;8.76;57.32
48527;BME280;34317;51.660;5.824;2023-02-01T02:19:32;101885.38;;;8.74;57.13
48527;BME280;34317;51.660;5.824;2023-02-01T02:31:24;101871.53;;;8.63;57.50
48527;BME280;34317;51.660;5.824;2023-02-01T02:36:39;101876.94;;;8.57;57.05
48527;BME280;34317;51.660;5.824;2023-02-01T02:39:23;101867.28;;;8.54;57.10
48527;BME280;34317;51.660;5.824;2023-02-01T02:45:18;101870.13;;;8.44;57.19
48527;BME280;34317;51.660;5.824;2023-02-01T02:48:26;101862.31;;;8.36;57.04
48527;BME280;34317;51.660;5.824;2023-02-01T02:51:07;101865.94;;;8.32;57.26
48527;BME280;34317;51.660;5.824;2023-02-01T02:54:13;101859.91;;;8.25;57.39
48527;BME280;34317;51.660;5.824;2023-02-01T02:57:04;101869.63;;;8.23;57.34
48527;BME280;34317;51.660;5.824;2023-02-01T02:59:52;101862.63;;;8.21;57.40
48527;BME280;34317;51.660;5.824;2023-02-01T03:02:39;101861.81;;;8.17;57.08
48527;BME280;34317;51.660;5.824;2023-02-01T03:05:25;101860.09;;;8.16;57.53
48527;BME280;34317;51.660;5.824;2023-02-01T03:08:02;101848.63;;;8.15;57.55
48527;BME280;34317;51.660;5.824;2023-02-01T03:10:37;101853.06;;;8.15;57.43
48527;BME280;34317;51.660;5.824;2023-02-01T03:13:30;101849.53;;;8.16;57.53
48527;BME280;34317;51.660;5.824;2023-02-01T03:21:17;101844.13;;;8.22;57.82
48527;BME280;34317;51.660;5.824;2023-02-01T03:23:46;101844.97;;;8.24;57.78
48527;BME280;34317;51.660;5.824;2023-02-01T03:26:16;101831.72;;;8.27;57.76
48527;BME280;34317;51.660;5.824;2023-02-01T03:28:51;101822.88;;;8.30;58.07
48527;BME280;34317;51.660;5.824;2023-02-01T03:31:22;101817.56;;;8.31;58.11
48527;BME280;34317;51.660;5.824;2023-02-01T03:33:50;101826.31;;;8.33;57.96
48527;BME280;34317;51.660;5.824;2023-02-01T03:36:26;101827.19;;;8.34;57.91
48527;BME280;34317;51.660;5.824;2023-02-01T03:41:54;101822.81;;;8.33;57.88
48527;BME280;34317;51.660;5.824;2023-02-01T03:44:26;101819.28;;;8.32;57.94
48527;BME280;34317;51.660;5.824;2023-02-01T03:47:04;101810.47;;;8.33;57.89
48527;BME280;34317;51.660;5.824;2023-02-01T03:49:36;101821.03;;;8.33;58.08
48527;BME280;34317;51.660;5.824;2023-02-01T03:52:09;101807.84;;;8.33;58.15
48527;BME280;34317;51.660;5.824;2023-02-01T03:54:38;101816.66;;;8.32;57.86
48527;BME280;34317;51.660;5.824;2023-02-01T03:57:09;101806.09;;;8.32;58.11
48527;BME280;34317;51.660;5.824;2023-02-01T03:59:43;101818.44;;;8.32;58.20
48527;BME280;34317;51.660;5.824;2023-02-01T04:02:11;101828.13;;;8.31;57.74
48527;BME280;34317;51.660;5.824;2023-02-01T04:04:38;101828.13;;;8.31;58.17
48527;BME280;34317;51.660;5.824;2023-02-01T04:07:06;101827.25;;;8.31;57.88
48527;BME280;34317;51.660;5.824;2023-02-01T04:09:33;101826.38;;;8.30;57.77
48527;BME280;34317;51.660;5.824;2023-02-01T04:12:00;101824.66;;;8.29;58.03
48527;BME280;34317;51.660;5.824;2023-02-01T04:14:27;101829.94;;;8.29;58.13
48527;BME280;34317;51.660;5.824;2023-02-01T04:16:55;101827.28;;;8.29;58.20
48527;BME280;34317;51.660;5.824;2023-02-01T04:19:22;101822.91;;;8.28;57.84
48527;BME280;34317;51.660;5.824;2023-02-01T04:21:49;101830.84;;;8.27;57.92
48527;BME280;34317;51.660;5.824;2023-02-01T04:24:16;101835.25;;;8.26;58.09
48527;BME280;34317;51.660;5.824;2023-02-01T04:26:43;101828.25;;;8.25;57.88
48527;BME280;34317;51.660;5.824;2023-02-01T04:29:10;101821.22;;;8.24;58.16
48527;BME280;34317;51.660;5.824;2023-02-01T04:31:37;101833.53;;;8.25;58.03
48527;BME280;34317;51.660;5.824;2023-02-01T04:34:04;101830.06;;;8.23;57.85
48527;BME280;34317;51.660;5.824;2023-02-01T04:36:31;101830.94;;;8.22;58.00
48527;BME280;34317;51.660;5.824;2023-02-01T04:38:58;101835.38;;;8.20;58.15
48527;BME280;34317;51.660;5.824;2023-02-01T04:41:25;101840.66;;;8.20;58.09
48527;BME280;34317;51.660;5.824;2023-02-01T04:43:53;101843.28;;;8.20;58.04
48527;BME280;34317;51.660;5.824;2023-02-01T04:46:20;101830.09;;;8.20;58.27
48527;BME280;34317;51.660;5.824;2023-02-01T04:48:47;101843.31;;;8.18;58.15
48527;BME280;34317;51.660;5.824;2023-02-01T04:51:14;101842.47;;;8.18;58.16
48527;BME280;34317;51.660;5.824;2023-02-01T04:53:42;101840.69;;;8.17;58.18
48527;BME280;34317;51.660;5.824;2023-02-01T04:56:09;101839.84;;;8.16;58.24
48527;BME280;34317;51.660;5.824;2023-02-01T04:58:36;101849.53;;;8.16;58.32
48527;BME280;34317;51.660;5.824;2023-02-01T05:01:04;101853.91;;;8.15;58.50
48527;BME280;34317;51.660;5.824;2023-02-01T05:03:33;101854.81;;;8.16;58.23
48527;BME280;34317;51.660;5.824;2023-02-01T05:06:00;101849.53;;;8.16;58.65
48527;BME280;34317;51.660;5.824;2023-02-01T05:08:27;101855.63;;;8.19;58.36
48527;BME280;34317;51.660;5.824;2023-02-01T05:10:55;101844.13;;;8.22;58.69
48527;BME280;34317;51.660;5.824;2023-02-01T05:13:22;101840.63;;;8.23;58.49
48527;BME280;34317;51.660;5.824;2023-02-01T05:16:08;101837.88;;;8.26;58.61
48527;BME280;34317;51.660;5.824;2023-02-01T05:18:35;101836.94;;;8.30;58.98
48527;BME280;34317;51.660;5.824;2023-02-01T05:21:02;101834.25;;;8.33;59.04
48527;BME280;34317;51.660;5.824;2023-02-01T05:23:30;101835.91;;;8.37;58.71
48527;BME280;34317;51.660;5.824;2023-02-01T05:25:59;101820.91;;;8.43;58.64
48527;BME280;34317;51.660;5.824;2023-02-01T05:28:28;101822.56;;;8.47;58.66
48527;BME280;34317;51.660;5.824;2023-02-01T05:30:55;101824.22;;;8.51;58.61
48527;BME280;34317;51.660;5.824;2023-02-01T05:33:22;101824.19;;;8.54;58.99
48527;BME280;34317;51.660;5.824;2023-02-01T05:35:49;101832.88;;;8.59;58.73
48527;BME280;34317;51.660;5.824;2023-02-01T05:38:17;101830.16;;;8.62;58.71
48527;BME280;34317;51.660;5.824;2023-02-01T05:40:44;101830.94;;;8.67;58.89
48527;BME280;34317;51.660;5.824;2023-02-01T05:43:16;101836.16;;;8.70;58.90
48527;BME280;34317;51.660;5.824;2023-02-01T05:45:43;101832.59;;;8.71;58.52
48527;BME280;34317;51.660;5.824;2023-02-01T05:48:10;101835.19;;;8.74;58.30
48527;BME280;34317;51.660;5.824;2023-02-01T05:50:37;101835.16;;;8.76;58.59
48527;BME280;34317;51.660;5.824;2023-02-01T05:53:08;101836.03;;;8.76;58.74
48527;BME280;34317;51.660;5.824;2023-02-01T05:55:36;101825.47;;;8.76;58.32
48527;BME280;34317;51.660;5.824;2023-02-01T05:58:03;101824.53;;;8.77;58.25
48527;BME280;34317;51.660;5.824;2023-02-01T06:00:31;101836.03;;;8.76;58.47
48527;BME280;34317;51.660;5.824;2023-02-01T06:02:58;101841.31;;;8.76;58.45
48527;BME280;34317;51.660;5.824;2023-02-01T06:05:25;101848.41;;;8.74;58.52
48527;BME280;34317;51.660;5.824;2023-02-01T06:07:52;101839.56;;;8.75;58.27
48527;BME280;34317;51.660;5.824;2023-02-01T06:10:20;101850.13;;;8.75;58.25
48527;BME280;34317;51.660;5.824;2023-02-01T06:12:47;101847.44;;;8.79;58.54
48527;BME280;34317;51.660;5.824;2023-02-01T06:15:15;101846.50;;;8.80;58.36
48527;BME280;34317;51.660;5.824;2023-02-01T06:17:46;101845.59;;;8.82;58.67
48527;BME280;34317;51.660;5.824;2023-02-01T06:20:16;101848.22;;;8.84;58.47
48527;BME280;34317;51.660;5.824;2023-02-01T06:22:43;101825.28;;;8.86;58.45
48527;BME280;34317;51.660;5.824;2023-02-01T06:25:10;101822.59;;;8.87;58.47
48527;BME280;34317;51.660;5.824;2023-02-01T06:27:37;101828.75;;;8.88;58.62
48527;BME280;34317;51.660;5.824;2023-02-01T06:30:06;101826.94;;;8.90;58.67
48527;BME280;34317;51.660;5.824;2023-02-01T06:32:34;101833.94;;;8.91;58.51
48527;BME280;34317;51.660;5.824;2023-02-01T06:35:01;101833.88;;;8.94;58.71
48527;BME280;34317;51.660;5.824;2023-02-01T06:37:28;101835.63;;;8.95;58.42
48527;BME280;34317;51.660;5.824;2023-02-01T06:39:56;101847.88;;;8.99;58.34
48527;BME280;34317;51.660;5.824;2023-02-01T06:42:23;101853.97;;;9.01;58.36
48527;BME280;34317;51.660;5.824;2023-02-01T06:44:50;101853.97;;;9.03;58.49
48527;BME280;34317;51.660;5.824;2023-02-01T06:47:17;101860.03;;;9.06;58.58
48527;BME280;34317;51.660;5.824;2023-02-01T06:49:44;101865.25;;;9.09;58.27
48527;BME280;34317;51.660;5.824;2023-02-01T06:52:11;101870.47;;;9.12;58.36
48527;BME280;34317;51.660;5.824;2023-02-01T06:54:38;101858.09;;;9.14;58.59
48527;BME280;34317;51.660;5.824;2023-02-01T06:57:05;101861.53;;;9.18;58.71
48527;BME280;34317;51.660;5.824;2023-02-01T06:59:32;101864.13;;;9.21;58.68
48527;BME280;34317;51.660;5.824;2023-02-01T07:02:00;101857.84;;;9.25;58.43
48527;BME280;34317;51.660;5.824;2023-02-01T07:04:27;101863.00;;;9.30;58.63
48527;BME280;34317;51.660;5.824;2023-02-01T07:06:54;101855.03;;;9.33;58.35
48527;BME280;34317;51.660;5.824;2023-02-01T07:09:21;101853.19;;;9.37;58.48
48527;BME280;34317;51.660;5.824;2023-02-01T07:11:48;101853.97;;;9.40;58.30
48527;BME280;34317;51.660;5.824;2023-02-01T07:14:15;101846.88;;;9.42;58.13
48527;BME280;34317;51.660;5.824;2023-02-01T07:16:42;101847.69;;;9.46;58.39
48527;BME280;34317;51.660;5.824;2023-02-01T07:19:09;101852.00;;;9.48;58.28
48527;BME280;34317;51.660;5.824;2023-02-01T07:21:36;101853.75;;;9.49;58.19
48527;BME280;34317;51.660;5.824;2023-02-01T07:24:04;101851.94;;;9.51;58.13
48527;BME280;34317;51.660;5.824;2023-02-01T07:26:31;101851.03;;;9.52;58.22
48527;BME280;34317;51.660;5.824;2023-02-01T07:28:59;101864.19;;;9.55;58.00
48527;BME280;34317;51.660;5.824;2023-02-01T07:31:26;101858.88;;;9.55;57.85
48527;BME280;34317;51.660;5.824;2023-02-01T07:33:55;101863.25;;;9.57;57.87
48527;BME280;34317;51.660;5.824;2023-02-01T07:36:24;101862.38;;;9.58;57.94
48527;BME280;34317;51.660;5.824;2023-02-01T07:38:51;101857.94;;;9.58;58.03
48527;BME280;34317;51.660;5.824;2023-02-01T07:41:22;101872.03;;;9.59;58.07
48527;BME280;34317;51.660;5.824;2023-02-01T07:43:52;101858.78;;;9.59;57.93
48527;BME280;34317;51.660;5.824;2023-02-01T07:46:20;101853.50;;;9.59;57.93
48527;BME280;34317;51.660;5.824;2023-02-01T07:48:47;101866.72;;;9.59;57.90
48527;BME280;34317;51.660;5.824;2023-02-01T07:51:16;101868.50;;;9.58;57.85
48527;BME280;34317;51.660;5.824;2023-02-01T07:53:43;101863.22;;;9.58;57.88
48527;BME280;34317;51.660;5.824;2023-02-01T07:56:17;101862.38;;;9.58;57.86
48527;BME280;34317;51.660;5.824;2023-02-01T07:58:52;101851.78;;;9.58;57.59
48527;BME280;34317;51.660;5.824;2023-02-01T08:01:24;101862.38;;;9.58;57.88
48527;BME280;34317;51.660;5.824;2023-02-01T08:03:56;101861.41;;;9.60;57.96
48527;BME280;34317;51.660;5.824;2023-02-01T08:06:24;101856.13;;;9.60;57.56
48527;BME280;34317;51.660;5.824;2023-02-01T08:08:52;101860.53;;;9.60;57.75
48527;BME280;34317;51.660;5.824;2023-02-01T08:11:21;101861.41;;;9.60;57.57
48527;BME280;34317;51.660;5.824;2023-02-01T08:13:48;101869.38;;;9.59;57.73
48527;BME280;34317;51.660;5.824;2023-02-01T08:16:17;101871.13;;;9.60;57.64
48527;BME280;34317;51.660;5.824;2023-02-01T08:18:45;101879.97;;;9.59;57.57
48527;BME280;34317;51.660;5.824;2023-02-01T08:23:44;101885.25;;;9.59;57.53
48527;BME280;34317;51.660;5.824;2023-02-01T08:28:43;101895.81;;;9.59;57.53
48527;BME280;34317;51.660;5.824;2023-02-01T08:31:13;101888.75;;;9.61;57.75
48527;BME280;34317;51.660;5.824;2023-02-01T08:33:48;101881.66;;;9.63;57.72
48527;BME280;34317;51.660;5.824;2023-02-01T08:36:16;101888.59;;;9.67;58.05
48527;BME280;34317;51.660;5.824;2023-02-01T08:38:43;101878.81;;;9.70;57.86
48527;BME280;34317;51.660;5.824;2023-02-01T08:41:13;101887.56;;;9.72;57.96
48527;BME280;34317;51.660;5.824;2023-02-01T08:43:41;101878.66;;;9.77;57.77
48527;BME280;34317;51.660;5.824;2023-02-01T08:46:10;101885.59;;;9.81;57.73
48527;BME280;34317;51.660;5.824;2023-02-01T08:48:38;101880.25;;;9.84;57.82
48527;BME280;34317;51.660;5.824;2023-02-01T08:51:08;101882.84;;;9.85;57.89
48527;BME280;34317;51.660;5.824;2023-02-01T08:53:36;101879.28;;;9.86;57.74
48527;BME280;34317;51.660;5.824;2023-02-01T08:56:04;101881.03;;;9.87;57.67
48527;BME280;34317;51.660;5.824;2023-02-01T08:58:32;101877.47;;;9.88;57.72
48527;BME280;34317;51.660;5.824;2023-02-01T09:01:07;101869.50;;;9.90;57.84
48527;BME280;34317;51.660;5.824;2023-02-01T09:03:35;101864.16;;;9.91;57.91
48527;BME280;34317;51.660;5.824;2023-02-01T09:06:08;101870.22;;;9.97;57.65
48527;BME280;34317;51.660;5.824;2023-02-01T09:08:36;101870.13;;;10.00;57.71
48527;BME280;34317;51.660;5.824;2023-02-01T09:11:06;101864.75;;;10.03;57.60
48527;BME280;34317;51.660;5.824;2023-02-01T09:13:34;101866.41;;;10.07;57.84
48527;BME280;34317;51.660;5.824;2023-02-01T09:16:03;101871.63;;;10.10;57.42
48527;BME280;34317;51.660;5.824;2023-02-01T09:18:30;101866.22;;;10.13;57.74
48527;BME280;34317;51.660;5.824;2023-02-01T09:20:57;101860.00;;;10.16;57.79
48527;BME280;34317;51.660;5.824;2023-02-01T09:23:25;101862.50;;;10.20;57.69
48527;BME280;34317;51.660;5.824;2023-02-01T09:25:52;101865.97;;;10.22;57.47
48527;BME280;34317;51.660;5.824;2023-02-01T09:28:19;101858.88;;;10.24;57.67
48527;BME280;34317;51.660;5.824;2023-02-01T09:30:46;101856.97;;;10.29;57.43
48527;BME280;34317;51.660;5.824;2023-02-01T09:33:14;101849.81;;;10.35;57.57
48527;BME280;34317;51.660;5.824;2023-02-01T09:35:41;101859.41;;;10.39;57.71
48527;BME280;34317;51.660;5.824;2023-02-01T09:38:08;101858.41;;;10.43;57.62
48527;BME280;34317;51.660;5.824;2023-02-01T09:40:35;101864.41;;;10.49;57.56
48527;BME280;34317;51.660;5.824;2023-02-01T09:43:25;101858.13;;;10.52;57.30
48527;BME280;34317;51.660;5.824;2023-02-01T09:48:46;101850.84;;;10.60;57.36
48527;BME280;34317;51.660;5.824;2023-02-01T09:51:20;101856.06;;;10.63;57.21
48527;BME280;34317;51.660;5.824;2023-02-01T09:59:41;101855.72;;;10.76;57.32
48527;BME280;34317;51.660;5.824;2023-02-01T10:02:13;101853.88;;;10.78;57.08
48527;BME280;34317;51.660;5.824;2023-02-01T10:04:41;101855.50;;;10.82;57.22
48527;BME280;34317;51.660;5.824;2023-02-01T10:13:04;101851.59;;;10.95;57.03
48527;BME280;34317;51.660;5.824;2023-02-01T10:15:58;101858.53;;;10.99;57.20
48527;BME280;34317;51.660;5.824;2023-02-01T10:18:51;101856.66;;;11.03;57.02
48527;BME280;34317;51.660;5.824;2023-02-01T10:21:47;101865.28;;;11.09;57.09
48527;BME280;34317;51.660;5.824;2023-02-01T10:27:02;101868.28;;;11.27;57.12
48527;BME280;34317;51.660;5.824;2023-02-01T10:29:39;101869.06;;;11.30;56.80
48527;BME280;34317;51.660;5.824;2023-02-01T10:32:12;101869.81;;;11.34;56.68
48527;BME280;34317;51.660;5.824;2023-02-01T10:34:41;101859.22;;;11.34;56.64
48527;BME280;34317;51.660;5.824;2023-02-01T10:39:39;101855.63;;;11.35;56.39
48527;BME280;34317;51.660;5.824;2023-02-01T10:42:07;101860.94;;;11.35;56.47
48527;BME280;34317;51.660;5.824;2023-02-01T10:44:40;101875.13;;;11.34;56.22
48527;BME280;34317;51.660;5.824;2023-02-01T10:47:10;101859.22;;;11.34;56.16
48527;BME280;34317;51.660;5.824;2023-02-01T10:49:47;101858.41;;;11.32;56.03
48527;BME280;34317;51.660;5.824;2023-02-01T10:52:20;101854.00;;;11.31;56.10
48527;BME280;34317;51.660;5.824;2023-02-01T10:54:52;101849.59;;;11.30;56.18
48527;BME280;34317;51.660;5.824;2023-02-01T10:57:26;101831.03;;;11.30;55.98
48527;BME280;34317;51.660;5.824;2023-02-01T10:59:56;101868.16;;;11.30;56.05
48527;BME280;34317;51.660;5.824;2023-02-01T11:02:29;101822.25;;;11.28;55.71
48527;BME280;34317;51.660;5.824;2023-02-01T11:05:00;101832.88;;;11.28;55.97
48527;BME280;34317;51.660;5.824;2023-02-01T11:07:28;101816.97;;;11.28;55.90
48527;BME280;34317;51.660;5.824;2023-02-01T11:09:56;101811.66;;;11.28;55.95
48527;BME280;34317;51.660;5.824;2023-02-01T11:12:28;101806.34;;;11.28;55.62
48527;BME280;34317;51.660;5.824;2023-02-01T11:15:14;101802.78;;;11.29;55.63
48527;BME280;34317;51.660;5.824;2023-02-01T11:17:45;101809.81;;;11.30;55.52
48527;BME280;34317;51.660;5.824;2023-02-01T11:20:16;101813.31;;;11.32;55.54
48527;BME280;34317;51.660;5.824;2023-02-01T11:23:02;101810.66;;;11.32;55.24
48527;BME280;34317;51.660;5.824;2023-02-01T11:25:31;101808.00;;;11.32;55.20
48527;BME280;34317;51.660;5.824;2023-02-01T11:28:02;101804.50;;;11.30;54.88
48527;BME280;34317;51.660;5.824;2023-02-01T11:30:33;101809.81;;;11.30;54.99
48527;BME280;34317;51.660;5.824;2023-02-01T11:33:03;101805.41;;;11.30;54.94
48527;BME280;34317;51.660;5.824;2023-02-01T11:35:36;101812.53;;;11.28;55.12
48527;BME280;34317;51.660;5.824;2023-02-01T11:38:21;101811.66;;;11.28;55.08
48527;BME280;34317;51.660;5.824;2023-02-01T11:40:49;101793.03;;;11.29;55.00
48527;BME280;34317;51.660;5.824;2023-02-01T11:43:26;101779.78;;;11.29;54.80
48527;BME280;34317;51.660;5.824;2023-02-01T11:45:59;101790.34;;;11.31;54.98
48527;BME280;34317;51.660;5.824;2023-02-01T11:48:31;101781.50;;;11.32;55.02
48527;BME280;34317;51.660;5.824;2023-02-01T11:54:10;101795.56;;;11.34;54.68
48527;BME280;34317;51.660;5.824;2023-02-01T11:57:24;101795.56;;;11.34;54.68
48527;BME280;34317;51.660;5.824;2023-02-01T11:59:56;101793.81;;;11.33;54.83
48527;BME280;34317;51.660;5.824;2023-02-01T12:05:20;101784.16;;;11.32;54.75
48527;BME280;34317;51.660;5.824;2023-02-01T12:10:43;101785.78;;;11.36;54.81
48527;BME280;34317;51.660;5.824;2023-02-01T12:16:15;101783.00;;;11.39;54.92
48527;BME280;34317;51.660;5.824;2023-02-01T12:24:19;101780.47;;;11.36;54.80
48527;BME280;34317;51.660;5.824;2023-02-01T12:35:10;101781.59;;;11.29;54.82
48527;BME280;34317;51.660;5.824;2023-02-01T12:44:00;101767.38;;;11.30;54.84
48527;BME280;34317;51.660;5.824;2023-02-01T12:51:38;101763.75;;;11.34;54.82
48527;BME280;34317;51.660;5.824;2023-02-01T12:54:22;101777.81;;;11.36;54.68
48527;BME280;34317;51.660;5.824;2023-02-01T12:56:57;101748.59;;;11.38;54.60
48527;BME280;34317;51.660;5.824;2023-02-01T12:59:34;101776.84;;;11.39;54.67
48527;BME280;34317;51.660;5.824;2023-02-01T13:08:10;101769.56;;;11.45;55.05
48527;BME280;34317;51.660;5.824;2023-02-01T13:10:46;101749.00;;;11.50;54.78
48527;BME280;34317;51.660;5.824;2023-02-01T13:13:22;101750.66;;;11.55;55.03
48527;BME280;34317;51.660;5.824;2023-02-01T13:16:08;101755.75;;;11.61;55.11
48527;BME280;34317;51.660;5.824;2023-02-01T13:18:41;101735.16;;;11.67;54.80
48527;BME280;34317;51.660;5.824;2023-02-01T13:21:16;101751.66;;;11.77;55.13
48527;BME280;34317;51.660;5.824;2023-02-01T13:23:46;101734.50;;;11.86;55.00
48527;BME280;34317;51.660;5.824;2023-02-01T13:26:15;101744.06;;;11.92;54.95
48527;BME280;34317;51.660;5.824;2023-02-01T13:28:55;101746.63;;;11.95;54.65
48527;BME280;34317;51.660;5.824;2023-02-01T13:37:14;101737.53;;;12.02;54.81
48527;BME280;34317;51.660;5.824;2023-02-01T13:39:48;101744.50;;;12.04;54.50
48527;BME280;34317;51.660;5.824;2023-02-01T13:42:21;101743.50;;;12.07;54.44
48527;BME280;34317;51.660;5.824;2023-02-01T13:44:52;101734.63;;;12.08;54.52
48527;BME280;34317;51.660;5.824;2023-02-01T13:49:57;101745.03;;;12.14;54.65
48527;BME280;34317;51.660;5.824;2023-02-01T13:57:50;101750.22;;;12.17;54.31
48527;BME280;34317;51.660;5.824;2023-02-01T14:03:06;101764.31;;;12.19;54.21
48527;BME280;34317;51.660;5.824;2023-02-01T14:10:58;101773.31;;;12.15;54.23
48527;BME280;34317;51.660;5.824;2023-02-01T14:26:46;101789.47;;;12.09;54.23
48527;BME280;34317;51.660;5.824;2023-02-01T14:31:52;101791.44;;;12.04;54.10
48527;BME280;34317;51.660;5.824;2023-02-01T14:34:29;101784.50;;;12.00;54.00
48527;BME280;34317;51.660;5.824;2023-02-01T14:37:02;101784.50;;;12.00;53.95
48527;BME280;34317;51.660;5.824;2023-02-01T14:39:46;101789.81;;;12.00;54.17
48527;BME280;34317;51.660;5.824;2023-02-01T14:50:32;101794.41;;;11.95;54.07
48527;BME280;34317;51.660;5.824;2023-02-01T14:58:19;101786.56;;;11.92;54.36
48527;BME280;34317;51.660;5.824;2023-02-01T15:00:57;101781.25;;;11.92;54.14
48527;BME280;34317;51.660;5.824;2023-02-01T15:06:24;101793.69;;;11.90;54.07
48527;BME280;34317;51.660;5.824;2023-02-01T15:08:58;101804.31;;;11.90;54.22
48527;BME280;34317;51.660;5.824;2023-02-01T15:11:26;101791.94;;;11.88;54.20
48527;BME280;34317;51.660;5.824;2023-02-01T15:13:54;101789.31;;;11.88;54.20
48527;BME280;34317;51.660;5.824;2023-02-01T15:16:25;101770.72;;;11.88;54.11
48527;BME280;34317;51.660;5.824;2023-02-01T15:19:07;101791.94;;;11.88;54.10
48527;BME280;34317;51.660;5.824;2023-02-01T15:21:45;101782.28;;;11.86;54.14
48527;BME280;34317;51.660;5.824;2023-02-01T15:24:18;101790.31;;;11.84;54.17
48527;BME280;34317;51.660;5.824;2023-02-01T15:26:46;101781.53;;;11.82;54.32
48527;BME280;34317;51.660;5.824;2023-02-01T15:29:14;101792.16;;;11.82;54.30
48527;BME280;34317;51.660;5.824;2023-02-01T15:31:44;101773.63;;;11.81;54.11
48527;BME280;34317;51.660;5.824;2023-02-01T15:34:12;101792.28;;;11.79;54.17
48527;BME280;34317;51.660;5.824;2023-02-01T15:36:40;101800.25;;;11.79;54.24
48527;BME280;34317;51.660;5.824;2023-02-01T15:39:25;101799.44;;;11.77;54.07
48527;BME280;34317;51.660;5.824;2023-02-01T15:41:57;101801.22;;;11.75;54.31
48527;BME280;34317;51.660;5.824;2023-02-01T15:44:32;101789.75;;;11.75;54.22
48527;BME280;34317;51.660;5.824;2023-02-01T15:47:06;101806.53;;;11.75;54.30